createdAt,value
2023-02-03T00:01:43.398Z,7.52
2023-02-03T00:04:01.363Z,7.44
2023-02-03T00:06:18.466Z,7.43
2023-02-03T00:08:35.779Z,7.42
2023-02-03T00:10:52.829Z,7.41
2023-02-03T00:13:10.347Z,7.44
2023-02-03T00:15:27.724Z,7.40
2023-02-03T00:17:45.469Z,7.37
2023-02-03T00:20:02.990Z,7.34
2023-02-03T00:22:19.956Z,7.29
2023-02-03T00:24:37.025Z,7.28
2023-02-03T00:26:54.054Z,7.32
2023-02-03T00:29:11.458Z,7.43
2023-02-03T00:31:29.873Z,7.38
2023-02-03T00:33:46.999Z,7.54
2023-02-03T00:36:05.118Z,7.55
2023-02-03T00:38:22.505Z,7.48
2023-02-03T00:40:40.482Z,7.39
2023-02-03T00:42:57.702Z,7.41
2023-02-03T00:45:14.726Z,7.35
2023-02-03T00:47:32.239Z,7.39
2023-02-03T00:49:50.326Z,7.36
2023-02-03T00:52:07.532Z,7.36
2023-02-03T00:54:25.983Z,7.45
2023-02-03T00:56:44.235Z,7.42
2023-02-03T00:59:01.630Z,7.35
2023-02-03T01:01:18.721Z,7.36
2023-02-03T01:03:35.931Z,7.31
2023-02-03T01:05:53.664Z,7.38
2023-02-03T01:08:10.814Z,7.37
2023-02-03T01:10:28.126Z,7.33
2023-02-03T01:12:45.741Z,7.25
2023-02-03T01:15:04.012Z,7.23
2023-02-03T01:17:21.357Z,7.21
2023-02-03T01:19:38.813Z,7.18
2023-02-03T01:21:55.895Z,7.16
2023-02-03T01:24:13.286Z,7.18
2023-02-03T01:26:30.962Z,7.17
2023-02-03T01:28:48.281Z,7.17
2023-02-03T01:31:05.469Z,7.13
2023-02-03T01:33:22.816Z,7.12
2023-02-03T01:35:40.157Z,7.25
2023-02-03T01:37:57.309Z,7.23
2023-02-03T01:40:14.679Z,7.19
2023-02-03T01:42:32.098Z,7.15
2023-02-03T01:44:51.406Z,7.12
2023-02-03T01:47:10.614Z,7.14
2023-02-03T01:49:27.819Z,7.14
2023-02-03T01:51:45.316Z,7.14
2023-02-03T01:54:05.875Z,7.18
2023-02-03T01:56:23.980Z,7.21
2023-02-03T01:58:42.171Z,7.23
2023-02-03T02:00:59.628Z,7.29
2023-02-03T02:03:17.014Z,7.26
2023-02-03T02:05:34.104Z,7.22
2023-02-03T02:07:51.258Z,7.18
2023-02-03T02:10:08.611Z,7.20
2023-02-03T02:12:25.927Z,7.14
2023-02-03T02:14:44.121Z,7.15
2023-02-03T02:17:01.218Z,7.12
2023-02-03T02:19:18.618Z,7.15
2023-02-03T02:21:36.068Z,7.13
2023-02-03T02:23:53.185Z,7.12
2023-02-03T02:26:10.267Z,7.16
2023-02-03T02:28:28.353Z,7.21
2023-02-03T02:30:45.526Z,7.17
2023-02-03T02:33:02.819Z,7.18
2023-02-03T02:35:20.143Z,7.19
2023-02-03T02:37:37.257Z,7.41
2023-02-03T02:39:55.508Z,7.35
2023-02-03T02:42:12.890Z,7.36
2023-02-03T02:44:29.869Z,7.31
2023-02-03T02:46:47.204Z,7.26
2023-02-03T02:49:04.482Z,7.30
2023-02-03T02:51:21.642Z,7.34
2023-02-03T02:53:38.990Z,7.34
2023-02-03T02:55:56.300Z,7.40
2023-02-03T02:58:14.000Z,7.40
2023-02-03T03:00:31.931Z,7.38
2023-02-03T03:02:48.991Z,7.33
2023-02-03T03:05:06.308Z,7.31
2023-02-03T03:07:23.509Z,7.27
2023-02-03T03:09:40.548Z,7.34
2023-02-03T03:11:57.810Z,7.32
2023-02-03T03:14:15.095Z,7.35
2023-02-03T03:16:32.103Z,7.33
2023-02-03T03:18:49.432Z,7.35
2023-02-03T03:21:06.788Z,7.33
2023-02-03T03:23:23.862Z,7.29
2023-02-03T03:25:40.956Z,7.32
2023-02-03T03:27:57.981Z,7.33
2023-02-03T03:30:15.043Z,7.35
2023-02-03T03:32:33.153Z,7.31
2023-02-03T03:34:50.186Z,7.43
2023-02-03T03:37:07.153Z,7.51
2023-02-03T03:39:24.382Z,7.44
2023-02-03T03:41:41.509Z,7.45
2023-02-03T03:43:58.657Z,7.39
2023-02-03T03:46:16.085Z,7.54
2023-02-03T03:48:33.447Z,7.55
2023-02-03T03:50:53.323Z,7.52
2023-02-03T03:53:10.391Z,7.55
2023-02-03T03:55:27.379Z,7.49
2023-02-03T03:57:44.347Z,7.47
2023-02-03T04:00:01.651Z,7.39
2023-02-03T04:02:18.988Z,7.42
2023-02-03T04:04:37.296Z,7.50
2023-02-03T04:06:54.322Z,7.42
2023-02-03T04:09:11.925Z,7.46
2023-02-03T04:11:30.000Z,7.44
2023-02-03T04:13:47.083Z,7.41
2023-02-03T04:16:04.823Z,7.50
2023-02-03T04:18:22.222Z,7.53
2023-02-03T04:20:39.670Z,7.54
2023-02-03T04:22:56.732Z,7.59
2023-02-03T04:25:14.030Z,7.64
2023-02-03T04:27:31.328Z,7.53
2023-02-03T04:29:49.337Z,7.66
2023-02-03T04:32:06.650Z,7.67
2023-02-03T04:34:23.757Z,7.57
2023-02-03T04:36:40.784Z,7.63
2023-02-03T04:38:58.076Z,7.52
2023-02-03T04:41:15.199Z,7.54
2023-02-03T04:43:32.514Z,7.50
2023-02-03T04:45:49.529Z,7.54
2023-02-03T04:48:06.861Z,7.57
2023-02-03T04:50:24.217Z,7.51
2023-02-03T04:52:41.650Z,7.55
2023-02-03T04:54:58.768Z,7.50
2023-02-03T04:57:15.861Z,7.51
2023-02-03T04:59:33.307Z,7.40
2023-02-03T05:01:50.270Z,7.43
2023-02-03T05:04:08.617Z,7.49
2023-02-03T05:06:25.866Z,7.56
2023-02-03T05:08:43.241Z,7.55
2023-02-03T05:11:02.235Z,7.69
2023-02-03T05:13:19.804Z,7.72
2023-02-03T05:15:37.810Z,7.62
2023-02-03T05:17:54.897Z,7.49
2023-02-03T05:20:12.009Z,7.43
2023-02-03T05:22:28.973Z,7.39
2023-02-03T05:24:46.989Z,7.49
2023-02-03T05:27:05.039Z,7.54
2023-02-03T05:29:22.443Z,7.50
2023-02-03T05:31:39.518Z,7.52
2023-02-03T05:33:56.529Z,7.64
2023-02-03T05:36:13.671Z,7.54
2023-02-03T05:38:30.651Z,7.54
2023-02-03T05:40:48.470Z,7.46
2023-02-03T05:43:05.726Z,7.55
2023-02-03T05:45:22.810Z,7.54
2023-02-03T05:47:40.192Z,7.54
2023-02-03T05:49:57.514Z,7.54
2023-02-03T05:52:14.448Z,7.56
2023-02-03T05:54:31.790Z,7.67
2023-02-03T05:56:48.831Z,7.72
2023-02-03T05:59:05.823Z,7.69
2023-02-03T06:01:22.702Z,7.71
2023-02-03T06:03:39.663Z,7.67
2023-02-03T06:05:57.028Z,7.66
2023-02-03T06:08:14.039Z,7.54
2023-02-03T06:10:31.034Z,7.48
2023-02-03T06:12:49.272Z,7.66
2023-02-03T06:15:06.343Z,7.68
2023-02-03T06:17:23.386Z,7.61
2023-02-03T06:19:41.631Z,7.61
2023-02-03T06:21:58.575Z,7.66
2023-02-03T06:24:16.596Z,7.65
2023-02-03T06:26:33.617Z,7.59
2023-02-03T06:28:50.612Z,7.51
2023-02-03T06:31:07.712Z,7.53
2023-02-03T06:33:25.131Z,7.66
2023-02-03T06:35:42.469Z,7.66
2023-02-03T06:37:59.675Z,7.62
2023-02-03T06:40:17.011Z,7.67
2023-02-03T06:42:33.885Z,7.58
2023-02-03T06:44:51.210Z,7.56
2023-02-03T06:47:08.253Z,7.70
2023-02-03T06:49:25.358Z,7.73
2023-02-03T06:51:43.396Z,7.86
2023-02-03T06:54:00.433Z,7.84
2023-02-03T06:56:17.400Z,7.75
2023-02-03T06:58:35.458Z,7.71
2023-02-03T07:00:52.401Z,7.82
2023-02-03T07:08:18.296Z,7.67
2023-02-03T07:10:36.531Z,7.71
2023-02-03T07:12:54.758Z,7.84
2023-02-03T07:15:11.766Z,7.98
2023-02-03T07:17:28.727Z,8.04
2023-02-03T07:19:46.222Z,8.00
2023-02-03T07:22:03.216Z,7.88
2023-02-03T07:24:20.265Z,7.89
2023-02-03T07:26:37.576Z,7.89
2023-02-03T07:28:54.641Z,7.89
2023-02-03T07:31:11.754Z,7.87
2023-02-03T07:33:29.104Z,7.88
2023-02-03T07:35:46.355Z,7.96
2023-02-03T07:38:03.313Z,8.04
2023-02-03T07:40:21.566Z,7.92
2023-02-03T07:42:38.757Z,7.88
2023-02-03T07:44:56.069Z,7.91
2023-02-03T07:47:13.107Z,7.98
2023-02-03T07:49:30.357Z,8.01
2023-02-03T07:51:47.574Z,8.01
2023-02-03T07:54:04.865Z,8.16
2023-02-03T07:56:22.117Z,8.10
2023-02-03T07:58:39.395Z,8.17
2023-02-03T08:00:56.612Z,8.15
2023-02-03T08:03:13.694Z,8.20
2023-02-03T08:05:30.691Z,8.08
2023-02-03T08:07:47.727Z,8.04
2023-02-03T08:10:04.840Z,7.97
2023-02-03T08:12:22.192Z,8.08
2023-02-03T08:14:39.459Z,8.06
2023-02-03T08:16:56.818Z,8.06
2023-02-03T08:19:14.144Z,8.17
2023-02-03T08:21:31.078Z,8.11
2023-02-03T08:23:48.165Z,8.10
2023-02-03T08:26:05.151Z,8.20
2023-02-03T08:28:23.120Z,8.22
2023-02-03T08:30:40.411Z,8.23
2023-02-03T08:32:57.448Z,8.17
2023-02-03T08:35:14.681Z,8.20
2023-02-03T08:37:31.911Z,8.35
2023-02-03T08:39:48.990Z,8.39
2023-02-03T08:42:07.009Z,8.43
2023-02-03T08:44:24.230Z,8.40
2023-02-03T08:46:41.294Z,8.42
2023-02-03T08:48:58.310Z,8.38
2023-02-03T08:51:15.335Z,8.41
2023-02-03T08:53:32.312Z,8.39
2023-02-03T08:55:49.275Z,8.45
2023-02-03T08:58:07.316Z,8.53
2023-02-03T09:00:24.434Z,8.47
2023-02-03T09:02:42.428Z,8.65
2023-02-03T09:04:59.527Z,8.71
2023-02-03T09:07:16.936Z,8.75
2023-02-03T09:09:34.426Z,8.84
2023-02-03T09:11:51.650Z,8.77
2023-02-03T09:14:08.623Z,8.85
2023-02-03T09:16:25.605Z,8.89
2023-02-03T09:18:43.650Z,8.80
2023-02-03T09:21:00.683Z,8.89
2023-02-03T09:23:18.073Z,8.90
2023-02-03T09:25:35.406Z,8.95
2023-02-03T09:27:52.512Z,9.06
2023-02-03T09:30:09.430Z,9.09
2023-02-03T09:32:26.479Z,9.09
2023-02-03T09:34:43.603Z,9.07
2023-02-03T09:37:00.585Z,9.07
2023-02-03T09:39:17.740Z,9.12
2023-02-03T09:41:35.004Z,9.25
2023-02-03T09:43:52.290Z,9.33
2023-02-03T09:46:09.315Z,9.57
2023-02-03T09:48:26.323Z,9.63
2023-02-03T09:50:43.214Z,9.77
2023-02-03T09:53:01.029Z,9.92
2023-02-03T09:55:18.316Z,10.07
2023-02-03T09:57:35.632Z,10.17
2023-02-03T09:59:52.651Z,10.34
2023-02-03T10:02:09.953Z,10.37
2023-02-03T10:04:27.243Z,10.36
2023-02-03T10:06:45.204Z,10.45
2023-02-03T10:09:02.280Z,10.33
2023-02-03T10:11:19.565Z,10.26
2023-02-03T10:13:38.165Z,10.17
2023-02-03T10:15:55.266Z,9.98
2023-02-03T10:18:12.295Z,9.85
2023-02-03T10:20:29.901Z,9.93
2023-02-03T10:22:47.281Z,9.82
2023-02-03T10:25:04.283Z,9.77
2023-02-03T10:27:21.203Z,9.63
2023-02-03T10:29:38.247Z,9.76
2023-02-03T10:31:57.518Z,9.86
2023-02-03T10:34:15.570Z,10.10
2023-02-03T10:36:32.528Z,10.18
2023-02-03T10:38:49.587Z,10.27
2023-02-03T10:41:06.704Z,10.36
2023-02-03T10:43:24.795Z,10.29
2023-02-03T10:45:42.016Z,10.19
2023-02-03T10:47:59.337Z,10.07
2023-02-03T10:50:16.399Z,10.01
2023-02-03T10:52:33.441Z,9.94
2023-02-03T10:54:50.503Z,9.84
2023-02-03T10:57:08.818Z,9.80
2023-02-03T10:59:25.829Z,9.75
2023-02-03T11:01:42.930Z,9.72
2023-02-03T11:04:00.184Z,9.75
2023-02-03T11:06:18.241Z,9.57
2023-02-03T11:08:35.149Z,9.65
2023-02-03T11:10:52.193Z,9.51
2023-02-03T11:13:09.028Z,9.50
2023-02-03T11:15:26.535Z,9.57
2023-02-03T11:17:44.125Z,9.49
2023-02-03T11:20:01.112Z,9.52
2023-02-03T11:22:18.352Z,9.50
2023-02-03T11:24:35.430Z,9.47
2023-02-03T11:26:52.506Z,9.44
2023-02-03T11:29:09.398Z,9.51
2023-02-03T11:31:26.518Z,9.57
2023-02-03T11:33:43.438Z,9.42
2023-02-03T11:36:00.507Z,9.37
2023-02-03T11:38:17.503Z,9.29
2023-02-03T11:40:34.541Z,9.30
2023-02-03T11:42:51.815Z,9.30
2023-02-03T11:45:08.921Z,9.34
2023-02-03T11:47:25.943Z,9.25
2023-02-03T11:49:43.979Z,9.15
2023-02-03T11:52:01.786Z,9.10
2023-02-03T11:54:18.689Z,9.20
2023-02-03T11:56:35.730Z,9.18
2023-02-03T11:58:52.959Z,9.21
2023-02-03T12:01:09.994Z,9.22
2023-02-03T12:03:26.893Z,9.28
2023-02-03T12:05:44.225Z,9.18
2023-02-03T12:08:01.291Z,9.24
2023-02-03T12:10:18.603Z,9.36
2023-02-03T12:12:35.676Z,9.45
2023-02-03T12:14:52.699Z,9.37
2023-02-03T12:17:09.968Z,9.39
2023-02-03T12:19:27.177Z,9.42
2023-02-03T12:21:44.433Z,9.48
2023-02-03T12:24:02.481Z,9.48
2023-02-03T12:26:19.546Z,9.67
2023-02-03T12:28:37.096Z,9.58
2023-02-03T12:30:54.515Z,9.64
2023-02-03T12:33:11.615Z,9.65
2023-02-03T12:35:30.057Z,9.75
2023-02-03T12:37:48.140Z,9.71
2023-02-03T12:40:05.020Z,9.67
2023-02-03T12:42:22.351Z,9.62
2023-02-03T12:44:39.591Z,9.57
2023-02-03T12:46:56.704Z,9.61
2023-02-03T12:49:13.974Z,9.63
2023-02-03T12:51:30.922Z,9.62
2023-02-03T12:53:48.913Z,9.53
2023-02-03T12:56:05.970Z,9.59
2023-02-03T12:58:22.929Z,9.60
2023-02-03T13:00:40.312Z,9.69
2023-02-03T13:02:58.598Z,9.52
2023-02-03T13:05:15.685Z,9.67
2023-02-03T13:07:33.723Z,9.47
2023-02-03T13:09:50.734Z,9.47
2023-02-03T13:12:08.912Z,9.42
2023-02-03T13:14:26.008Z,9.47
2023-02-03T13:16:43.976Z,9.53
2023-02-03T13:19:01.016Z,9.50
2023-02-03T13:21:19.260Z,9.44
2023-02-03T13:23:36.213Z,9.41
2023-02-03T13:25:54.196Z,9.42
2023-02-03T13:28:11.607Z,9.45
2023-02-03T13:30:28.872Z,9.62
2023-02-03T13:32:47.295Z,9.57
2023-02-03T13:35:04.320Z,9.65
2023-02-03T13:37:22.362Z,9.53
2023-02-03T13:39:39.422Z,9.46
2023-02-03T13:41:57.786Z,9.55
2023-02-03T13:44:15.067Z,9.50
2023-02-03T13:46:32.107Z,9.46
2023-02-03T13:48:50.806Z,9.42
2023-02-03T13:51:08.081Z,9.46
2023-02-03T13:53:25.536Z,9.40
2023-02-03T13:55:42.545Z,9.31
2023-02-03T13:57:59.466Z,9.33
2023-02-03T14:00:16.445Z,9.33
2023-02-03T14:02:33.447Z,9.40
2023-02-03T14:04:52.403Z,9.41
2023-02-03T14:07:10.235Z,9.43
2023-02-03T14:09:27.267Z,9.53
2023-02-03T14:11:44.294Z,9.41
2023-02-03T14:14:01.696Z,9.46
2023-02-03T14:16:18.880Z,9.50
2023-02-03T14:18:36.168Z,9.37
2023-02-03T14:20:53.412Z,9.35
2023-02-03T14:23:10.616Z,9.36
2023-02-03T14:25:28.111Z,9.39
2023-02-03T14:27:45.874Z,9.27
2023-02-03T14:30:02.903Z,9.29
2023-02-03T14:32:20.225Z,9.37
2023-02-03T14:34:38.154Z,9.22
2023-02-03T14:36:55.418Z,9.18
2023-02-03T14:39:13.758Z,9.21
2023-02-03T14:41:31.705Z,9.15
2023-02-03T14:43:48.786Z,9.18
2023-02-03T14:46:05.969Z,9.13
2023-02-03T14:48:23.212Z,9.17
2023-02-03T14:50:40.407Z,9.09
2023-02-03T14:52:57.331Z,9.00
2023-02-03T14:55:14.620Z,9.01
2023-02-03T14:57:31.599Z,8.95
2023-02-03T14:59:48.857Z,9.01
2023-02-03T15:02:06.814Z,8.96
2023-02-03T15:04:24.118Z,8.88
2023-02-03T15:06:41.354Z,8.98
2023-02-03T15:08:58.618Z,8.97
2023-02-03T15:11:15.614Z,8.93
2023-02-03T15:13:32.868Z,8.92
2023-02-03T15:15:49.930Z,8.81
2023-02-03T15:18:07.264Z,8.99
2023-02-03T15:20:24.164Z,8.88
2023-02-03T15:22:41.259Z,8.82
2023-02-03T15:24:58.550Z,8.76
2023-02-03T15:27:15.631Z,8.81
2023-02-03T15:29:32.913Z,8.83
2023-02-03T15:31:50.345Z,8.79
2023-02-03T15:34:07.475Z,8.74
2023-02-03T15:36:24.771Z,8.75
2023-02-03T15:38:42.061Z,8.72
2023-02-03T15:41:00.386Z,8.77
2023-02-03T15:43:17.533Z,8.88
2023-02-03T15:45:34.699Z,8.93
2023-02-03T15:47:51.843Z,8.90
2023-02-03T15:50:09.269Z,8.90
2023-02-03T15:52:27.230Z,8.87
2023-02-03T15:54:44.559Z,8.80
2023-02-03T15:57:02.793Z,8.74
2023-02-03T15:59:20.387Z,8.78
2023-02-03T16:01:37.433Z,8.74
2023-02-03T16:03:54.390Z,8.86
2023-02-03T16:06:11.437Z,8.77
2023-02-03T16:08:28.861Z,8.87
2023-02-03T16:10:45.913Z,8.79
2023-02-03T16:13:02.964Z,8.83
2023-02-03T16:15:21.048Z,8.82
2023-02-03T16:17:38.348Z,8.84
2023-02-03T16:19:55.296Z,8.87
2023-02-03T16:22:12.630Z,8.87
2023-02-03T16:24:30.869Z,8.79
2023-02-03T16:26:47.873Z,8.80
2023-02-03T16:29:04.849Z,8.84
2023-02-03T16:31:22.337Z,8.92
2023-02-03T16:33:40.329Z,8.86
2023-02-03T16:35:57.684Z,8.81
2023-02-03T16:38:15.979Z,8.74
2023-02-03T16:40:33.340Z,8.72
2023-02-03T16:42:51.231Z,8.83
2023-02-03T16:45:08.385Z,8.90
2023-02-03T16:47:26.401Z,8.83
2023-02-03T16:49:43.429Z,8.84
2023-02-03T16:52:00.740Z,8.95
2023-02-03T16:54:17.720Z,8.92
2023-02-03T16:56:35.011Z,8.99
2023-02-03T16:58:52.371Z,9.00
2023-02-03T17:01:09.614Z,8.92
2023-02-03T17:03:26.699Z,8.87
2023-02-03T17:05:43.621Z,8.82
2023-02-03T17:08:00.694Z,8.79
2023-02-03T17:10:17.712Z,8.80
2023-02-03T17:12:35.866Z,8.92
2023-02-03T17:14:52.966Z,8.90
2023-02-03T17:17:10.240Z,8.90
2023-02-03T17:19:27.533Z,8.89
2023-02-03T17:21:44.919Z,8.91
2023-02-03T17:24:02.281Z,8.87
2023-02-03T17:26:20.637Z,8.88
2023-02-03T17:28:37.883Z,8.96
2023-02-03T17:30:55.370Z,8.92
2023-02-03T17:33:12.742Z,8.87
2023-02-03T17:35:30.117Z,8.92
2023-02-03T17:37:48.637Z,9.01
2023-02-03T17:55:20.027Z,9.10
2023-02-03T17:57:37.340Z,9.11
2023-02-03T17:59:54.652Z,9.01
2023-02-03T18:02:11.649Z,8.96
2023-02-03T18:04:29.696Z,8.93
2023-02-03T18:06:46.581Z,8.90
2023-02-03T18:09:04.050Z,8.85
2023-02-03T18:11:21.955Z,8.88
2023-02-03T18:13:38.921Z,8.84
2023-02-03T18:15:56.037Z,8.88
2023-02-03T18:18:13.380Z,8.90
2023-02-03T18:20:30.678Z,8.96
2023-02-03T18:22:48.892Z,8.99
2023-02-03T18:25:06.232Z,8.97
2023-02-03T18:27:23.252Z,9.04
2023-02-03T18:29:40.209Z,8.98
2023-02-03T18:31:57.343Z,9.11
2023-02-03T18:34:14.309Z,9.32
2023-02-03T18:36:32.381Z,9.20
2023-02-03T18:38:49.770Z,9.16
2023-02-03T18:41:06.727Z,9.05
2023-02-03T18:43:26.969Z,9.16
2023-02-03T18:45:45.094Z,9.08
2023-02-03T18:48:02.236Z,9.03
2023-02-03T18:50:20.528Z,9.01
2023-02-03T18:52:37.811Z,9.05
2023-02-03T18:54:55.219Z,9.11
2023-02-03T18:57:12.600Z,9.18
2023-02-03T18:59:29.623Z,9.10
2023-02-03T19:01:47.770Z,9.18
2023-02-03T19:04:04.980Z,9.12
2023-02-03T19:06:22.312Z,9.08
2023-02-03T19:08:39.240Z,9.07
2023-02-03T19:10:56.274Z,9.04
2023-02-03T19:13:13.370Z,9.03
2023-02-03T19:15:30.333Z,9.14
2023-02-03T19:17:48.269Z,9.06
2023-02-03T19:20:05.329Z,9.09
2023-02-03T19:22:22.676Z,9.21
2023-02-03T19:24:39.542Z,9.20
2023-02-03T19:26:57.056Z,9.13
2023-02-03T19:29:15.320Z,9.11
2023-02-03T19:31:32.526Z,9.15
2023-02-03T19:33:49.862Z,9.06
2023-02-03T19:36:06.903Z,9.04
2023-02-03T19:38:23.943Z,9.04
2023-02-03T19:40:41.334Z,9.16
2023-02-03T19:42:58.202Z,9.23
2023-02-03T19:45:15.256Z,9.36
2023-02-03T19:47:32.532Z,9.26
2023-02-03T19:49:49.644Z,9.17
2023-02-03T19:52:06.757Z,9.07
2023-02-03T19:54:24.028Z,9.03
2023-02-03T19:56:41.043Z,9.05
2023-02-03T19:58:58.039Z,9.05
2023-02-03T20:01:15.020Z,9.02
2023-02-03T20:03:32.360Z,9.02
2023-02-03T20:05:50.399Z,9.02
2023-02-03T20:08:07.491Z,9.00
2023-02-03T20:10:25.216Z,8.95
2023-02-03T20:12:42.186Z,8.88
2023-02-03T20:14:59.194Z,8.88
2023-02-03T20:17:16.622Z,8.98
2023-02-03T20:19:34.603Z,9.04
2023-02-03T20:21:51.560Z,8.99
2023-02-03T20:24:08.581Z,9.00
2023-02-03T20:26:25.559Z,8.95
2023-02-03T20:28:43.520Z,8.96
2023-02-03T20:31:00.908Z,8.99
2023-02-03T20:33:19.079Z,9.01
2023-02-03T20:35:36.125Z,9.08
2023-02-03T20:37:53.516Z,9.08
2023-02-03T20:40:10.600Z,9.01
2023-02-03T20:42:27.805Z,8.97
2023-02-03T20:44:45.004Z,8.98
2023-02-03T20:47:04.334Z,8.98
2023-02-03T20:49:21.318Z,9.04
2023-02-03T20:51:38.260Z,8.95
2023-02-03T20:53:55.588Z,8.89
2023-02-03T20:56:13.714Z,8.95
2023-02-03T20:58:30.679Z,8.91
2023-02-03T21:00:47.957Z,8.87
2023-02-03T21:03:05.058Z,8.77
2023-02-03T21:05:22.127Z,8.90
2023-02-03T21:07:39.122Z,8.81
2023-02-03T21:09:56.019Z,8.73
2023-02-03T21:12:13.304Z,8.64
2023-02-03T21:14:30.513Z,8.60
2023-02-03T21:16:47.499Z,8.57
2023-02-03T21:19:04.602Z,8.55
2023-02-03T21:21:21.664Z,8.55
2023-02-03T21:23:38.664Z,8.52
2023-02-03T21:25:55.760Z,8.50
2023-02-03T21:28:13.629Z,8.44
2023-02-03T21:30:31.058Z,8.43
2023-02-03T21:32:50.545Z,8.42
2023-02-03T21:35:07.597Z,8.37
2023-02-03T21:37:25.893Z,8.37
2023-02-03T21:39:43.492Z,8.38
2023-02-03T21:42:00.405Z,8.38
2023-02-03T21:44:18.425Z,8.34
2023-02-03T21:46:35.753Z,8.32
2023-02-03T21:48:52.709Z,8.32
2023-02-03T21:51:10.027Z,8.34
2023-02-03T21:53:28.090Z,8.31
2023-02-03T21:55:45.411Z,8.30
2023-02-03T21:58:02.517Z,8.29
2023-02-03T22:00:19.562Z,8.28
2023-02-03T22:02:37.632Z,8.30
2023-02-03T22:04:54.906Z,8.31
2023-02-03T22:07:12.301Z,8.29
2023-02-03T22:09:29.606Z,8.28
2023-02-03T22:11:46.623Z,8.25
2023-02-03T22:14:03.560Z,8.21
2023-02-03T22:16:20.958Z,8.20
2023-02-03T22:18:38.027Z,8.22
2023-02-03T22:20:56.228Z,8.20
2023-02-03T22:23:13.331Z,8.24
2023-02-03T22:25:30.649Z,8.20
2023-02-03T22:27:47.740Z,8.21
2023-02-03T22:30:05.041Z,8.21
2023-02-03T22:32:22.294Z,8.22
2023-02-03T22:34:39.299Z,8.22
2023-02-03T22:36:57.133Z,8.23
2023-02-03T22:39:14.356Z,8.21
2023-02-03T22:41:31.297Z,8.18
2023-02-03T22:43:48.675Z,8.19
2023-02-03T22:46:05.801Z,8.18
2023-02-03T22:48:24.384Z,8.17
2023-02-03T22:50:41.679Z,8.19
2023-02-03T22:52:58.963Z,8.17
2023-02-03T22:55:16.957Z,8.14
2023-02-03T22:57:33.966Z,8.13
2023-02-03T22:59:50.861Z,8.13
2023-02-03T23:02:08.196Z,8.12
2023-02-03T23:04:25.558Z,8.13
2023-02-03T23:06:43.590Z,8.14
2023-02-03T23:09:00.606Z,8.14
2023-02-03T23:11:17.543Z,8.10
2023-02-03T23:13:34.476Z,8.13
2023-02-03T23:15:52.694Z,8.12
2023-02-03T23:18:09.785Z,8.11
2023-02-03T23:20:27.897Z,8.09
2023-02-03T23:22:45.097Z,8.11
2023-02-03T23:25:02.129Z,8.13
2023-02-03T23:27:19.145Z,8.12
2023-02-03T23:29:37.661Z,8.11
2023-02-03T23:31:54.728Z,8.08
2023-02-03T23:34:12.692Z,8.08
2023-02-03T23:36:30.953Z,8.08
2023-02-03T23:38:48.262Z,8.07
2023-02-03T23:41:05.146Z,8.05
2023-02-03T23:43:22.177Z,8.06
2023-02-03T23:45:39.212Z,8.07
2023-02-03T23:47:56.148Z,8.13
2023-02-03T23:50:14.133Z,8.09
2023-02-03T23:52:31.111Z,8.24
2023-02-03T23:54:49.412Z,8.24
2023-02-03T23:57:06.390Z,8.24
2023-02-03T23:59:24.396Z,8.38
